^^
Your Local Weather - Clay, NY Station Historical Data
Daily Summary for January 13, 2018 Units:  English    Metric   Both
« Previous Day
Next Day »
Daily Weekly Monthly Yearly Custom
  High: Low: Average:
Temperature: 17.4 °F -0.8 °F 10.1 °F
Dew Point: 15.2 °F -4.2 °F 7.4 °F
Humidity: 91% 85% 89%
Wind Speed: 10.0mph 0.0mph 3.5mph
Wind Gust: 13.0mph - -
Wind- - WNW
Pressure: 30.53 in 29.76 in -
Precipitation: 0.00 in    
Historical Graphs
 
 
Tabular Data for January 13, 2018
Time Temperature Dew Point Pressure Wind Wind Speed Wind Gust Humidity Rainfall Rate (Hourly) solar
00:03 17.4 °F 15.2 °F 29.79 in NNE 5.0 mph 6.0 mph 91% 0.00 in 0 W/m2
00:10 17.2 °F 15.0 °F 29.79 in North 5.0 mph 8.0 mph 91% 0.00 in 0 W/m2
00:18 16.7 °F 14.5 °F 29.79 in NW 7.0 mph 13.0 mph 91% 0.00 in 0 W/m2
00:23 16.5 °F 14.1 °F 29.80 in NW 7.0 mph 9.0 mph 90% 0.00 in 0 W/m2
00:29 16.3 °F 13.9 °F 29.80 in NW 7.0 mph 7.0 mph 90% 0.00 in 0 W/m2
00:35 16.3 °F 14.1 °F 29.80 in North 6.0 mph 7.0 mph 91% 0.00 in 0 W/m2
00:42 16.2 °F 13.8 °F 29.81 in NW 4.0 mph 5.0 mph 90% 0.00 in 0 W/m2
00:48 16.1 °F 13.9 °F 29.82 in NNW 5.0 mph 7.0 mph 91% 0.00 in 0 W/m2
00:53 16.1 °F 13.9 °F 29.82 in NNW 4.0 mph 5.0 mph 91% 0.00 in 0 W/m2
01:05 15.7 °F 13.3 °F 29.80 in NW 7.0 mph 10.0 mph 90% 0.00 in 0 W/m2
01:12 15.5 °F 13.1 °F 29.76 in NNW 7.0 mph 7.0 mph 90% 0.00 in 0 W/m2
01:18 15.3 °F 12.9 °F 29.78 in NNW 7.0 mph 11.0 mph 90% 0.00 in 0 W/m2
01:23 15.2 °F 12.8 °F 29.78 in NW 7.0 mph 11.0 mph 90% 0.00 in 0 W/m2
01:29 15.1 °F 12.7 °F 29.79 in NNW 7.0 mph 7.0 mph 90% 0.00 in 0 W/m2
01:36 15.0 °F 12.6 °F 29.77 in North 7.0 mph 10.0 mph 90% 0.00 in 0 W/m2
01:42 14.9 °F 12.5 °F 29.78 in NW 6.0 mph 9.0 mph 90% 0.00 in 0 W/m2
01:48 14.8 °F 12.4 °F 29.76 in NNE 7.0 mph 9.0 mph 90% 0.00 in 0 W/m2
01:54 14.6 °F 12.2 °F 29.77 in NW 8.0 mph 11.0 mph 90% 0.00 in 0 W/m2
02:00 14.3 °F 11.9 °F 29.77 in NNW 8.0 mph 8.0 mph 90% 0.00 in 0 W/m2
02:06 14.2 °F 11.8 °F 29.77 in NNW 6.0 mph 8.0 mph 90% 0.00 in 0 W/m2
02:12 14.1 °F 11.7 °F 29.79 in NNW 6.0 mph 6.0 mph 90% 0.00 in 0 W/m2
02:19 14.1 °F 11.7 °F 29.80 in NNW 5.0 mph 5.0 mph 90% 0.00 in 0 W/m2
02:26 14.0 °F 11.6 °F 29.81 in NNW 5.0 mph 9.0 mph 90% 0.00 in 0 W/m2
02:35 13.9 °F 11.5 °F 29.81 in NW 6.0 mph 8.0 mph 90% 0.00 in 0 W/m2
02:42 13.8 °F 11.2 °F 29.82 in North 6.0 mph 7.0 mph 89% 0.00 in 0 W/m2
02:52 13.7 °F 11.3 °F 29.81 in NW 3.0 mph 3.0 mph 90% 0.00 in 0 W/m2
02:58 13.7 °F 11.3 °F 29.82 in NW 4.0 mph 7.0 mph 90% 0.00 in 0 W/m2
03:03 13.7 °F 11.3 °F 29.83 in NW 4.0 mph 5.0 mph 90% 0.00 in 0 W/m2
03:09 13.7 °F 11.3 °F 29.83 in NW 3.0 mph 5.0 mph 90% 0.00 in 0 W/m2
03:16 13.5 °F 11.1 °F 29.83 in NW 4.0 mph 12.0 mph 90% 0.00 in 0 W/m2
03:22 13.2 °F 10.6 °F 29.82 in North 6.0 mph 8.0 mph 89% 0.00 in 0 W/m2
03:28 13.0 °F 10.4 °F 29.82 in NNW 6.0 mph 9.0 mph 89% 0.00 in 0 W/m2
03:34 12.9 °F 10.3 °F 29.82 in WNW 6.0 mph 11.0 mph 89% 0.00 in 0 W/m2
03:39 12.8 °F 10.2 °F 29.82 in North 7.0 mph 9.0 mph 89% 0.00 in 0 W/m2
03:50 12.5 °F 9.9 °F 29.80 in NNW 7.0 mph 10.0 mph 89% 0.00 in 0 W/m2
03:55 12.4 °F 9.8 °F 29.78 in North 7.0 mph 10.0 mph 89% 0.00 in 0 W/m2
04:02 12.2 °F 9.6 °F 29.78 in NNE 6.0 mph 6.0 mph 89% 0.00 in 0 W/m2
04:08 12.1 °F 9.5 °F 29.78 in NNW 6.0 mph 7.0 mph 89% 0.00 in 0 W/m2
04:13 11.9 °F 9.3 °F 29.79 in North 7.0 mph 8.0 mph 89% 0.00 in 0 W/m2
04:20 11.9 °F 9.3 °F 29.80 in NW 6.0 mph 6.0 mph 89% 0.00 in 0 W/m2
04:26 11.8 °F 9.2 °F 29.79 in NW 5.0 mph 6.0 mph 89% 0.00 in 0 W/m2
04:32 11.7 °F 9.1 °F 29.79 in NNW 6.0 mph 8.0 mph 89% 0.00 in 0 W/m2
04:38 11.7 °F 9.1 °F 29.80 in North 7.0 mph 11.0 mph 89% 0.00 in 0 W/m2
04:43 11.6 °F 9.0 °F 29.79 in NW 7.0 mph 9.0 mph 89% 0.00 in 0 W/m2
04:49 11.5 °F 8.9 °F 29.79 in North 8.0 mph 8.0 mph 89% 0.00 in 0 W/m2
04:56 11.6 °F 9.0 °F 29.81 in NNW 7.0 mph 13.0 mph 89% 0.00 in 0 W/m2
05:02 11.5 °F 8.9 °F 29.81 in North 8.0 mph 11.0 mph 89% 0.00 in 0 W/m2
05:08 11.5 °F 8.9 °F 29.82 in NW 10.0 mph 11.0 mph 89% 0.00 in 0 W/m2
05:13 11.5 °F 8.9 °F 29.82 in North 8.0 mph 10.0 mph 89% 0.00 in 0 W/m2
05:19 11.5 °F 8.9 °F 29.84 in NW 6.0 mph 9.0 mph 89% 0.00 in 0 W/m2
05:26 11.6 °F 9.0 °F 29.85 in NNW 6.0 mph 9.0 mph 89% 0.00 in 0 W/m2
05:32 11.6 °F 9.0 °F 29.83 in NW 7.0 mph 7.0 mph 89% 0.00 in 0 W/m2
05:42 11.5 °F 8.9 °F 29.84 in NW 8.0 mph 13.0 mph 89% 0.00 in 0 W/m2
05:48 11.4 °F 8.8 °F 29.85 in WNW 8.0 mph 13.0 mph 89% 0.00 in 0 W/m2
05:53 11.3 °F 8.7 °F 29.88 in NNW 6.0 mph 8.0 mph 89% 0.00 in 0 W/m2
05:59 11.3 °F 8.7 °F 29.90 in WNW 4.0 mph 4.0 mph 89% 0.00 in 0 W/m2
06:05 11.4 °F 8.8 °F 29.92 in NNW 3.0 mph 4.0 mph 89% 0.00 in 0 W/m2
06:12 11.4 °F 8.8 °F 29.92 in WNW 4.0 mph 5.0 mph 89% 0.00 in 0 W/m2
06:29 11.1 °F 8.5 °F 29.91 in NNW 8.0 mph 8.0 mph 89% 0.00 in 0 W/m2
06:36 10.9 °F 8.3 °F 29.93 in NNW 6.0 mph 10.0 mph 89% 0.00 in 0 W/m2
06:42 11.0 °F 8.4 °F 29.95 in NW 4.0 mph 5.0 mph 89% 0.00 in 0 W/m2
06:48 10.9 °F 8.3 °F 29.97 in WNW 5.0 mph 5.0 mph 89% 0.00 in 0 W/m2
06:53 11.0 °F 8.4 °F 29.98 in NW 5.0 mph 5.0 mph 89% 0.00 in 0 W/m2
07:00 11.0 °F 8.4 °F 29.98 in NW 4.0 mph 4.0 mph 89% 0.00 in 0 W/m2
07:06 11.0 °F 8.4 °F 29.98 in NW 4.0 mph 8.0 mph 89% 0.00 in 0 W/m2
07:12 10.9 °F 8.3 °F 29.99 in NNW 6.0 mph 6.0 mph 89% 0.00 in 0 W/m2
07:18 10.9 °F 8.3 °F 29.99 in NNW 5.0 mph 9.0 mph 89% 0.00 in 0 W/m2
07:23 10.7 °F 8.1 °F 29.99 in NNW 5.0 mph 9.0 mph 89% 0.00 in 0 W/m2
07:29 10.6 °F 8.0 °F 30.00 in North 4.0 mph 4.0 mph 89% 0.00 in 0 W/m2
07:36 10.6 °F 8.0 °F 30.01 in NNW 4.0 mph 7.0 mph 89% 0.00 in 0 W/m2
07:42 10.6 °F 8.0 °F 30.01 in NW 6.0 mph 6.0 mph 89% 0.00 in 0 W/m2
07:48 10.6 °F 8.0 °F 30.02 in NW 5.0 mph 7.0 mph 89% 0.00 in 0 W/m2
07:53 10.7 °F 8.1 °F 30.01 in NNW 4.0 mph 5.0 mph 89% 0.00 in 0 W/m2
07:59 10.6 °F 8.0 °F 30.02 in NW 4.0 mph 5.0 mph 89% 0.00 in 5 W/m2
08:06 10.6 °F 8.0 °F 30.02 in NW 4.0 mph 7.0 mph 89% 0.00 in 7 W/m2
08:12 10.7 °F 8.1 °F 30.03 in NNW 4.0 mph 4.0 mph 89% 0.00 in 16 W/m2
08:18 10.8 °F 8.2 °F 30.02 in NNW 4.0 mph 9.0 mph 89% 0.00 in 25 W/m2
08:23 10.9 °F 8.3 °F 30.03 in NW 4.0 mph 5.0 mph 89% 0.00 in 25 W/m2
08:29 10.9 °F 8.3 °F 30.03 in NNW 5.0 mph 7.0 mph 89% 0.00 in 32 W/m2
08:40 10.9 °F 8.3 °F 30.03 in North 4.0 mph 4.0 mph 89% 0.00 in 42 W/m2
08:45 10.8 °F 8.2 °F 30.03 in NNW 4.0 mph 5.0 mph 89% 0.00 in 33 W/m2
08:52 10.7 °F 8.1 °F 30.03 in NNW 5.0 mph 8.0 mph 89% 0.00 in 39 W/m2
08:58 10.7 °F 8.1 °F 30.04 in NW 3.0 mph 8.0 mph 89% 0.00 in 51 W/m2
09:03 10.7 °F 8.1 °F 30.04 in North 2.0 mph 3.0 mph 89% 0.00 in 70 W/m2
09:10 10.9 °F 8.3 °F 30.04 in NNW 3.0 mph 5.0 mph 89% 0.00 in 74 W/m2
09:18 10.8 °F 8.2 °F 30.06 in NNW 5.0 mph 6.0 mph 89% 0.00 in 60 W/m2
09:23 10.7 °F 7.8 °F 30.07 in NNW 5.0 mph 6.0 mph 88% 0.00 in 54 W/m2
09:30 10.6 °F 7.7 °F 30.07 in North 4.0 mph 4.0 mph 88% 0.00 in 62 W/m2
09:35 10.6 °F 8.0 °F 30.08 in NNW 4.0 mph 9.0 mph 89% 0.00 in 95 W/m2
09:42 10.5 °F 7.6 °F 30.08 in NNW 5.0 mph 5.0 mph 88% 0.00 in 125 W/m2
09:50 10.5 °F 7.6 °F 30.09 in NW 4.0 mph 8.0 mph 88% 0.00 in 149 W/m2
09:55 10.5 °F 7.9 °F 30.10 in NW 5.0 mph 8.0 mph 89% 0.00 in 169 W/m2
10:02 10.5 °F 7.9 °F 30.11 in NNW 4.0 mph 5.0 mph 89% 0.00 in 260 W/m2
10:08 10.8 °F 7.9 °F 30.12 in NNW 4.0 mph 5.0 mph 88% 0.00 in 214 W/m2
10:14 11.1 °F 8.5 °F 30.12 in NNW 4.0 mph 5.0 mph 89% 0.00 in 186 W/m2
10:20 11.1 °F 8.5 °F 30.13 in NNW 5.0 mph 5.0 mph 89% 0.00 in 158 W/m2
10:32 11.1 °F 8.5 °F 30.15 in North 4.0 mph 7.0 mph 89% 0.00 in 155 W/m2
10:38 11.1 °F 8.5 °F 30.15 in NNW 5.0 mph 7.0 mph 89% 0.00 in 153 W/m2
10:48 10.9 °F 8.0 °F 30.16 in North 5.0 mph 10.0 mph 88% 0.00 in 163 W/m2
10:54 10.7 °F 7.8 °F 30.16 in NNW 6.0 mph 7.0 mph 88% 0.00 in 165 W/m2
10:59 10.5 °F 7.6 °F 30.16 in North 6.0 mph 7.0 mph 88% 0.00 in 153 W/m2
11:06 10.4 °F 7.6 °F 30.16 in NNW 6.0 mph 7.0 mph 88% 0.00 in 137 W/m2
11:12 10.5 °F 7.6 °F 30.16 in NNW 5.0 mph 6.0 mph 88% 0.00 in 199 W/m2
11:18 10.7 °F 7.8 °F 30.16 in NW 4.0 mph 6.0 mph 88% 0.00 in 229 W/m2
11:24 10.9 °F 8.3 °F 30.16 in NNW 4.0 mph 4.0 mph 89% 0.00 in 174 W/m2
11:29 11.0 °F 8.4 °F 30.16 in NNW 4.0 mph 4.0 mph 89% 0.00 in 149 W/m2
11:36 11.1 °F 8.5 °F 30.16 in NW 5.0 mph 5.0 mph 89% 0.00 in 125 W/m2
11:46 11.3 °F 8.7 °F 30.16 in NW 4.0 mph 7.0 mph 89% 0.00 in 197 W/m2
11:52 11.1 °F 8.5 °F 30.16 in NNW 6.0 mph 9.0 mph 89% 0.00 in 176 W/m2
11:58 10.9 °F 8.0 °F 30.16 in NW 6.0 mph 9.0 mph 88% 0.00 in 160 W/m2
12:03 10.9 °F 8.0 °F 30.16 in NNW 5.0 mph 5.0 mph 88% 0.00 in 144 W/m2
12:10 11.0 °F 8.1 °F 30.16 in North 4.0 mph 7.0 mph 88% 0.00 in 139 W/m2
12:15 10.9 °F 8.0 °F 30.16 in NNW 5.0 mph 9.0 mph 88% 0.00 in 132 W/m2
12:22 10.9 °F 8.0 °F 30.16 in NNW 5.0 mph 5.0 mph 88% 0.00 in 151 W/m2
12:28 11.0 °F 8.4 °F 30.16 in North 4.0 mph 8.0 mph 89% 0.00 in 146 W/m2
12:34 11.0 °F 8.4 °F 30.16 in NNW 4.0 mph 6.0 mph 89% 0.00 in 155 W/m2
12:40 11.0 °F 8.1 °F 30.16 in NNW 5.0 mph 5.0 mph 88% 0.00 in 174 W/m2
12:45 10.9 °F 8.0 °F 30.16 in NNW 5.0 mph 7.0 mph 88% 0.00 in 165 W/m2
12:52 10.7 °F 7.8 °F 30.16 in NW 5.0 mph 6.0 mph 88% 0.00 in 137 W/m2
12:58 10.6 °F 7.7 °F 30.17 in NW 5.0 mph 8.0 mph 88% 0.00 in 134 W/m2
13:04 10.5 °F 7.6 °F 30.17 in NNW 5.0 mph 5.0 mph 88% 0.00 in 174 W/m2
13:10 10.6 °F 8.0 °F 30.17 in NNW 4.0 mph 5.0 mph 89% 0.00 in 163 W/m2
13:22 10.9 °F 8.3 °F 30.17 in WNW 4.0 mph 4.0 mph 89% 0.00 in 158 W/m2
13:28 11.2 °F 8.6 °F 30.17 in NNW 2.0 mph 4.0 mph 89% 0.00 in 153 W/m2
13:34 11.3 °F 8.7 °F 30.18 in NW 3.0 mph 4.0 mph 89% 0.00 in 153 W/m2
13:40 11.4 °F 8.8 °F 30.18 in NNW 3.0 mph 4.0 mph 89% 0.00 in 132 W/m2
13:45 11.5 °F 8.9 °F 30.19 in North 3.0 mph 5.0 mph 89% 0.00 in 132 W/m2
13:52 11.5 °F 8.9 °F 30.19 in NNW 3.0 mph 4.0 mph 89% 0.00 in 125 W/m2
13:58 11.4 °F 8.8 °F 30.20 in NNW 5.0 mph 7.0 mph 89% 0.00 in 120 W/m2
14:04 11.3 °F 8.7 °F 30.21 in NW 5.0 mph 7.0 mph 89% 0.00 in 121 W/m2
14:10 11.3 °F 8.7 °F 30.21 in NW 4.0 mph 4.0 mph 89% 0.00 in 114 W/m2
14:15 11.3 °F 8.7 °F 30.21 in WNW 4.0 mph 4.0 mph 89% 0.00 in 107 W/m2
14:22 11.2 °F 8.6 °F 30.21 in NW 4.0 mph 8.0 mph 89% 0.00 in 104 W/m2
14:28 11.2 °F 8.6 °F 30.22 in WNW 4.0 mph 8.0 mph 89% 0.00 in 111 W/m2
14:33 11.1 °F 8.5 °F 30.22 in WNW 5.0 mph 7.0 mph 89% 0.00 in 102 W/m2
14:39 11.1 °F 8.2 °F 30.23 in NNW 5.0 mph 5.0 mph 88% 0.00 in 104 W/m2
14:55 11.1 °F 8.5 °F 30.24 in WNW 4.0 mph 5.0 mph 89% 0.00 in 83 W/m2
15:08 11.0 °F 8.1 °F 30.26 in NW 4.0 mph 5.0 mph 88% 0.00 in 67 W/m2
15:14 10.9 °F 8.0 °F 30.26 in NW 4.0 mph 7.0 mph 88% 0.00 in 65 W/m2
15:26 10.9 °F 8.0 °F 30.27 in WNW 3.0 mph 4.0 mph 88% 0.00 in 53 W/m2
15:32 10.9 °F 8.0 °F 30.28 in NW 2.0 mph 3.0 mph 88% 0.00 in 49 W/m2
15:38 10.9 °F 8.0 °F 30.29 in NW 3.0 mph 3.0 mph 88% 0.00 in 46 W/m2
15:50 11.0 °F 8.4 °F 30.29 in NW 2.0 mph 4.0 mph 89% 0.00 in 40 W/m2
15:55 10.9 °F 8.3 °F 30.30 in NNW 3.0 mph 4.0 mph 89% 0.00 in 37 W/m2
16:02 11.0 °F 8.4 °F 30.31 in NW 2.0 mph 3.0 mph 89% 0.00 in 30 W/m2
16:08 11.0 °F 8.4 °F 30.31 in NW 1.0 mph 3.0 mph 89% 0.00 in 26 W/m2
16:14 11.0 °F 8.4 °F 30.32 in NW 1.0 mph 2.0 mph 89% 0.00 in 21 W/m2
16:20 11.0 °F 8.4 °F 30.32 in NW 2.0 mph 4.0 mph 89% 0.00 in 18 W/m2
16:25 11.0 °F 8.4 °F 30.33 in NW 2.0 mph 4.0 mph 89% 0.00 in 16 W/m2
16:32 11.0 °F 8.4 °F 30.33 in NW 2.0 mph 2.0 mph 89% 0.00 in 11 W/m2
16:38 11.0 °F 8.4 °F 30.34 in NW 1.0 mph 2.0 mph 89% 0.00 in 7 W/m2
16:50 11.0 °F 8.4 °F 30.34 in NW 2.0 mph 2.0 mph 89% 0.00 in 0 W/m2
16:56 11.0 °F 8.4 °F 30.35 in NW 1.0 mph 2.0 mph 89% 0.00 in 0 W/m2
17:05 10.9 °F 8.3 °F 30.35 in NW 1.0 mph 3.0 mph 89% 0.00 in 0 W/m2
17:12 10.7 °F 8.1 °F 30.35 in WNW 2.0 mph 2.0 mph 89% 0.00 in 0 W/m2
17:18 10.5 °F 7.6 °F 30.35 in WNW 2.0 mph 2.0 mph 88% 0.00 in 0 W/m2
17:24 10.3 °F 7.5 °F 30.36 in WNW 1.0 mph 1.0 mph 88% 0.00 in 0 W/m2
17:35 9.7 °F 6.9 °F 30.37 in Calm     88% 0.00 in 0 W/m2
17:42 9.2 °F 6.4 °F 30.37 in Calm     88% 0.00 in 0 W/m2
17:48 8.8 °F 6.0 °F 30.37 in Calm     88% 0.00 in 0 W/m2
17:53 8.5 °F 5.7 °F 30.38 in Calm     88% 0.00 in 0 W/m2
17:59 8.1 °F 5.3 °F 30.38 in Calm     88% 0.00 in 0 W/m2
18:05 7.8 °F 5.0 °F 30.38 in Calm     88% 0.00 in 0 W/m2
18:12 7.5 °F 4.7 °F 30.38 in Calm     88% 0.00 in 0 W/m2
18:18 7.3 °F 4.5 °F 30.39 in Calm     88% 0.00 in 0 W/m2
18:24 7.1 °F 4.3 °F 30.39 in Calm     88% 0.00 in 0 W/m2
18:30 7.0 °F 4.2 °F 30.40 in Calm     88% 0.00 in 0 W/m2
18:38 7.0 °F 4.2 °F 30.40 in Calm     88% 0.00 in 0 W/m2
18:44 7.0 °F 4.2 °F 30.40 in Calm     88% 0.00 in 0 W/m2
18:49 6.9 °F 4.1 °F 30.40 in Calm     88% 0.00 in 0 W/m2
18:55 6.8 °F 4.0 °F 30.41 in Calm   1.0 mph 88% 0.00 in 0 W/m2
19:02 6.7 °F 3.9 °F 30.42 in Calm     88% 0.00 in 0 W/m2
19:08 6.7 °F 3.9 °F 30.42 in Calm     88% 0.00 in 0 W/m2
19:14 6.6 °F 3.8 °F 30.42 in Calm     88% 0.00 in 0 W/m2
19:25 6.8 °F 4.0 °F 30.43 in Calm   1.0 mph 88% 0.00 in 0 W/m2
19:32 7.0 °F 4.2 °F 30.43 in WNW 1.0 mph 2.0 mph 88% 0.00 in 0 W/m2
19:38 7.2 °F 4.4 °F 30.43 in NE 2.0 mph 3.0 mph 88% 0.00 in 0 W/m2
19:43 7.3 °F 4.5 °F 30.43 in NE 1.0 mph 2.0 mph 88% 0.00 in 0 W/m2
19:49 7.3 °F 4.5 °F 30.44 in NE 1.0 mph 1.0 mph 88% 0.00 in 0 W/m2
19:56 7.2 °F 4.4 °F 30.44 in East 2.0 mph 2.0 mph 88% 0.00 in 0 W/m2
20:02 7.0 °F 4.2 °F 30.44 in East 2.0 mph 3.0 mph 88% 0.00 in 0 W/m2
20:08 6.8 °F 3.8 °F 30.45 in ENE 2.0 mph 3.0 mph 87% 0.00 in 0 W/m2
20:14 6.7 °F 3.7 °F 30.45 in ENE 1.0 mph 2.0 mph 87% 0.00 in 0 W/m2
20:23 6.6 °F 3.6 °F 30.45 in ENE 1.0 mph 2.0 mph 87% 0.00 in 0 W/m2
20:30 6.5 °F 3.7 °F 30.45 in ENE 1.0 mph 2.0 mph 88% 0.00 in 0 W/m2
20:35 6.5 °F 3.5 °F 30.46 in Calm   2.0 mph 87% 0.00 in 0 W/m2
20:42 6.4 °F 3.4 °F 30.46 in Calm   2.0 mph 87% 0.00 in 0 W/m2
20:48 6.4 °F 3.4 °F 30.46 in ENE 1.0 mph 2.0 mph 87% 0.00 in 0 W/m2
20:54 6.3 °F 3.3 °F 30.45 in Calm   1.0 mph 87% 0.00 in 0 W/m2
21:02 6.2 °F 3.2 °F 30.47 in Calm     87% 0.00 in 0 W/m2
21:08 6.1 °F 3.1 °F 30.47 in Calm     87% 0.00 in 0 W/m2
21:16 6.0 °F 3.0 °F 30.47 in Calm     87% 0.00 in 0 W/m2
21:22 5.9 °F 2.9 °F 30.47 in Calm     87% 0.00 in 0 W/m2
21:28 5.8 °F 2.8 °F 30.47 in Calm     87% 0.00 in 0 W/m2
21:34 5.6 °F 2.6 °F 30.47 in Calm     87% 0.00 in 0 W/m2
21:39 5.5 °F 2.5 °F 30.48 in Calm     87% 0.00 in 0 W/m2
21:45 5.3 °F 2.3 °F 30.48 in Calm     87% 0.00 in 0 W/m2
21:52 5.1 °F 2.1 °F 30.48 in Calm     87% 0.00 in 0 W/m2
21:58 5.0 °F 2.0 °F 30.48 in Calm     87% 0.00 in 0 W/m2
22:03 4.9 °F 1.9 °F 30.48 in Calm     87% 0.00 in 0 W/m2
22:09 4.8 °F 1.8 °F 30.48 in Calm     87% 0.00 in 0 W/m2
22:15 4.7 °F 1.7 °F 30.49 in Calm     87% 0.00 in 0 W/m2
22:22 4.5 °F 1.5 °F 30.49 in Calm     87% 0.00 in 0 W/m2
22:28 4.3 °F 1.3 °F 30.50 in Calm     87% 0.00 in 0 W/m2
22:33 4.1 °F 1.1 °F 30.50 in Calm     87% 0.00 in 0 W/m2
22:40 3.8 °F 0.5 °F 30.50 in Calm     86% 0.00 in 0 W/m2
22:45 3.4 °F 0.2 °F 30.50 in Calm     86% 0.00 in 0 W/m2
23:03 2.3 °F -0.9 °F 30.51 in Calm     86% 0.00 in 0 W/m2
23:13 1.8 °F -1.4 °F 30.51 in Calm     86% 0.00 in 0 W/m2
23:19 1.4 °F -1.8 °F 30.52 in Calm     86% 0.00 in 0 W/m2
23:26 1.1 °F -2.1 °F 30.52 in Calm     86% 0.00 in 0 W/m2
23:32 0.8 °F -2.4 °F 30.52 in Calm     86% 0.00 in 0 W/m2
23:38 0.4 °F -2.8 °F 30.52 in Calm     86% 0.00 in 0 W/m2
23:44 0.1 °F -3.1 °F 30.53 in Calm     86% 0.00 in 0 W/m2
23:49 -0.4 °F -3.8 °F 30.53 in Calm     85% 0.00 in 0 W/m2
23:56 -0.8 °F -4.2 °F 30.53 in Calm     85% 0.00 in 0 W/m2
Country Meadow, Clay, NY, USA
Compliments of Weather Underground - 2 mb